createdAt,value
2022-12-18T00:04:10.618Z,10.85
2022-12-18T00:09:39.317Z,10.82
2022-12-18T00:15:07.539Z,11.07
2022-12-18T00:20:33.559Z,10.90
2022-12-18T00:25:57.534Z,10.25
2022-12-18T00:31:27.660Z,9.98
2022-12-18T00:36:52.602Z,10.97
2022-12-18T00:42:32.535Z,9.93
2022-12-18T00:47:59.537Z,8.88
2022-12-18T00:53:25.543Z,9.75
2022-12-18T00:58:49.548Z,10.03
2022-12-18T01:04:17.539Z,10.40
2022-12-18T01:09:42.537Z,9.97
2022-12-18T01:15:07.572Z,9.45
2022-12-18T01:20:34.693Z,9.93
2022-12-18T01:26:05.544Z,10.03
2022-12-18T01:36:59.527Z,9.43
2022-12-18T01:42:26.555Z,9.50
2022-12-18T01:47:54.585Z,9.17
2022-12-18T01:53:26.561Z,9.43
2022-12-18T01:58:58.585Z,9.17
2022-12-18T02:04:31.610Z,8.40
2022-12-18T02:10:03.556Z,8.50
2022-12-18T02:15:35.559Z,8.77
2022-12-18T02:21:05.614Z,8.93
2022-12-18T02:26:37.607Z,9.05
2022-12-18T02:32:08.600Z,8.83
2022-12-18T02:37:36.583Z,9.03
2022-12-18T02:43:03.584Z,9.23
2022-12-18T02:48:32.559Z,9.37
2022-12-18T02:54:02.595Z,8.70
2022-12-18T02:59:36.588Z,8.50
2022-12-18T03:05:06.594Z,9.13
2022-12-18T03:10:37.595Z,8.17
2022-12-18T03:16:08.576Z,8.65
2022-12-18T03:21:40.364Z,8.40
2022-12-18T03:27:11.592Z,8.57
2022-12-18T03:32:43.604Z,9.10
2022-12-18T03:38:08.637Z,9.20
2022-12-18T03:43:48.586Z,9.63
2022-12-18T03:49:24.600Z,9.17
2022-12-18T03:54:51.583Z,9.30
2022-12-18T04:00:20.579Z,8.97
2022-12-18T04:06:00.602Z,9.90
2022-12-18T04:11:25.610Z,9.30
2022-12-18T04:16:51.587Z,9.60
2022-12-18T04:22:26.686Z,9.73
2022-12-18T04:27:51.639Z,9.80
2022-12-18T04:33:16.614Z,9.30
2022-12-18T04:38:44.587Z,9.83
2022-12-18T04:44:09.626Z,9.97
2022-12-18T04:49:34.714Z,9.07
2022-12-18T04:55:01.620Z,9.57
2022-12-18T05:00:27.676Z,9.67
2022-12-18T05:05:51.618Z,8.43
2022-12-18T05:11:23.646Z,9.03
2022-12-18T05:16:47.666Z,9.40
2022-12-18T05:22:12.725Z,9.33
2022-12-18T05:27:39.641Z,8.90
2022-12-18T05:33:04.659Z,9.13
2022-12-18T05:38:28.616Z,8.77
2022-12-18T05:43:56.637Z,8.57
2022-12-18T05:49:20.603Z,8.43
2022-12-18T05:54:46.741Z,8.90
2022-12-18T06:00:14.713Z,8.60
2022-12-18T06:05:39.654Z,9.13
2022-12-18T06:11:07.600Z,8.53
2022-12-18T06:16:36.668Z,9.03
2022-12-18T06:22:00.698Z,9.07
2022-12-18T06:27:25.632Z,9.43
2022-12-18T06:32:56.766Z,8.63
2022-12-18T06:38:21.632Z,7.53
2022-12-18T06:43:46.612Z,8.53
2022-12-18T06:49:14.675Z,8.80
2022-12-18T06:54:38.680Z,7.77
2022-12-18T07:00:03.648Z,8.37
2022-12-18T07:05:30.632Z,7.47
2022-12-18T07:10:56.735Z,8.20
2022-12-18T07:16:25.639Z,7.67
2022-12-18T07:21:53.667Z,7.63
2022-12-18T07:27:17.628Z,7.90
2022-12-18T07:32:42.646Z,7.10
2022-12-18T07:38:09.721Z,7.57
2022-12-18T07:43:34.672Z,7.43
2022-12-18T07:48:59.649Z,7.93
2022-12-18T07:54:27.667Z,7.67
2022-12-18T07:59:52.681Z,7.83
2022-12-18T08:05:18.653Z,7.67
2022-12-18T08:10:46.844Z,8.20
2022-12-18T08:16:13.706Z,7.47
2022-12-18T08:21:40.638Z,7.20
2022-12-18T08:32:53.650Z,6.57
2022-12-18T08:38:18.683Z,6.80
2022-12-18T08:43:58.697Z,6.60
2022-12-18T08:49:34.688Z,5.83
2022-12-18T08:54:59.704Z,6.37
2022-12-18T09:00:29.754Z,6.20
2022-12-18T09:05:56.662Z,6.27
2022-12-18T09:11:26.670Z,6.30
2022-12-18T09:16:55.749Z,6.07
2022-12-18T09:22:19.717Z,5.97
2022-12-18T09:27:44.676Z,5.00
2022-12-18T09:33:11.697Z,5.73
2022-12-18T09:38:36.958Z,5.47
2022-12-18T09:44:05.667Z,6.40
2022-12-18T09:49:36.666Z,6.25
2022-12-18T09:55:05.712Z,5.20
2022-12-18T10:00:32.683Z,5.45
2022-12-18T10:06:09.685Z,5.72
2022-12-18T10:11:53.669Z,5.50
2022-12-18T10:17:27.750Z,5.20
2022-12-18T10:23:07.684Z,5.28
2022-12-18T10:28:34.695Z,4.93
2022-12-18T10:33:59.693Z,5.45
2022-12-18T10:39:38.707Z,5.00
2022-12-18T10:45:11.699Z,4.20
2022-12-18T10:51:10.359Z,4.20
2022-12-18T10:56:37.700Z,4.65
2022-12-18T11:02:04.835Z,4.20
2022-12-18T11:07:29.892Z,3.85
2022-12-18T11:12:56.707Z,3.70
2022-12-18T11:18:29.704Z,3.97
2022-12-18T11:24:03.711Z,4.10
2022-12-18T11:29:40.720Z,4.70
2022-12-18T11:35:16.703Z,4.50
2022-12-18T11:40:46.707Z,4.28
2022-12-18T11:46:20.247Z,4.43
2022-12-18T11:52:01.746Z,4.38
2022-12-18T11:57:42.749Z,4.53
2022-12-18T12:03:34.758Z,3.88
2022-12-18T12:09:15.708Z,3.97
2022-12-18T12:14:55.750Z,4.50
2022-12-18T12:20:35.835Z,5.00
2022-12-18T12:26:07.742Z,5.10
2022-12-18T12:31:53.793Z,4.38
2022-12-18T12:37:33.756Z,4.22
2022-12-18T12:43:15.788Z,3.67
2022-12-18T12:48:54.737Z,4.10
2022-12-18T12:54:30.726Z,4.45
2022-12-18T13:00:06.719Z,4.20
2022-12-18T13:05:39.747Z,4.53
2022-12-18T13:11:20.842Z,4.40
2022-12-18T13:16:45.741Z,4.18
2022-12-18T13:22:10.797Z,3.60
2022-12-18T13:28:12.047Z,3.00
2022-12-18T13:34:25.165Z,3.10
2022-12-18T13:39:50.912Z,2.65
2022-12-18T13:45:47.904Z,2.80
2022-12-18T13:51:15.746Z,2.78
2022-12-18T13:56:43.760Z,2.65
2022-12-18T14:02:12.868Z,3.03
2022-12-18T14:07:45.251Z,3.55
2022-12-18T14:13:21.792Z,3.60
2022-12-18T14:18:57.569Z,3.42
2022-12-18T14:24:37.757Z,4.10
2022-12-18T14:30:02.770Z,3.10
2022-12-18T14:35:31.760Z,3.20
2022-12-18T14:40:56.768Z,6.57
2022-12-18T14:46:22.810Z,3.55
2022-12-18T14:52:04.786Z,3.33
2022-12-18T14:57:33.793Z,3.10
2022-12-18T15:02:59.874Z,2.80
2022-12-18T15:08:40.768Z,3.30
2022-12-18T15:14:04.796Z,3.50
2022-12-18T15:19:31.829Z,3.42
2022-12-18T15:24:58.825Z,3.80
2022-12-18T15:30:29.852Z,3.60
2022-12-18T15:35:54.799Z,4.07
2022-12-18T15:41:25.821Z,3.65
2022-12-18T15:46:49.816Z,3.70
2022-12-18T15:52:15.818Z,3.63
2022-12-18T15:57:42.828Z,3.60
2022-12-18T16:03:08.026Z,3.28
2022-12-18T16:08:31.809Z,3.60
2022-12-18T16:13:59.813Z,4.32
2022-12-18T16:19:23.797Z,5.68
2022-12-18T16:24:50.830Z,4.30
2022-12-18T16:30:17.810Z,4.20
2022-12-18T16:35:44.801Z,4.30
2022-12-18T16:41:21.816Z,4.20
2022-12-18T16:46:50.854Z,5.38
2022-12-18T16:52:17.824Z,4.13
2022-12-18T16:57:43.960Z,3.92
2022-12-18T17:03:11.087Z,3.85
2022-12-18T17:08:36.855Z,4.00
2022-12-18T17:14:01.850Z,4.30
2022-12-18T17:19:29.817Z,3.85
2022-12-18T17:24:55.046Z,4.00
2022-12-18T17:30:20.832Z,4.50
2022-12-18T17:35:47.857Z,4.28
2022-12-18T17:41:14.832Z,4.22
2022-12-18T17:46:39.914Z,4.50
2022-12-18T17:52:07.836Z,4.18
2022-12-18T17:57:31.848Z,4.47
2022-12-18T18:02:57.011Z,4.18
2022-12-18T18:08:23.863Z,4.60
2022-12-18T18:14:00.848Z,4.43
2022-12-18T18:19:26.829Z,4.20
2022-12-18T18:24:54.869Z,3.95
2022-12-18T18:30:19.860Z,4.13
2022-12-18T18:35:54.205Z,4.35
2022-12-18T18:41:21.856Z,4.07
2022-12-18T18:46:46.901Z,4.60
2022-12-18T18:52:18.862Z,4.13
2022-12-18T18:57:46.859Z,4.50
2022-12-18T19:03:10.956Z,4.60
2022-12-18T19:08:38.125Z,4.90
2022-12-18T19:14:08.565Z,4.60
2022-12-18T19:19:33.865Z,4.15
2022-12-18T19:24:57.874Z,4.00
2022-12-18T19:30:25.852Z,3.97
2022-12-18T19:35:49.861Z,3.67
2022-12-18T19:41:15.900Z,3.88
2022-12-18T19:46:43.892Z,3.83
2022-12-18T19:52:08.897Z,4.20
2022-12-18T19:57:32.892Z,3.78
2022-12-18T20:03:09.821Z,3.50
2022-12-18T20:08:39.901Z,3.15
2022-12-18T20:14:12.919Z,3.40
2022-12-18T20:19:39.927Z,3.80
2022-12-18T20:25:04.912Z,3.75
2022-12-18T20:30:29.900Z,3.78
2022-12-18T20:35:57.914Z,4.43
2022-12-18T20:41:24.971Z,3.85
2022-12-18T20:46:49.934Z,4.35
2022-12-18T20:52:16.917Z,3.90
2022-12-18T20:57:42.941Z,4.07
2022-12-18T21:03:07.045Z,4.15
2022-12-18T21:08:34.912Z,4.13
2022-12-18T21:13:58.949Z,3.58
2022-12-18T21:19:25.913Z,4.35
2022-12-18T21:24:52.906Z,4.00
2022-12-18T21:30:18.917Z,4.10
2022-12-18T21:35:42.898Z,4.03
2022-12-18T21:41:14.920Z,4.70
2022-12-18T21:46:39.953Z,4.47
2022-12-18T21:52:06.911Z,4.18
2022-12-18T21:57:33.924Z,4.30
2022-12-18T22:03:17.057Z,4.50
2022-12-18T22:08:43.825Z,4.63
2022-12-18T22:14:11.931Z,4.47
2022-12-18T22:19:42.686Z,4.75
2022-12-18T22:25:07.932Z,4.65
2022-12-18T22:30:34.926Z,4.60
2022-12-18T22:35:59.919Z,4.63
2022-12-18T22:41:24.963Z,4.43
2022-12-18T22:47:05.928Z,4.38
2022-12-18T22:52:37.952Z,4.50
2022-12-18T22:58:02.951Z,4.65
2022-12-18T23:03:29.967Z,4.10
2022-12-18T23:08:56.251Z,4.43
2022-12-18T23:14:19.957Z,4.57
2022-12-18T23:19:50.924Z,4.20
2022-12-18T23:25:14.956Z,5.13
2022-12-18T23:30:40.935Z,4.80
2022-12-18T23:36:08.976Z,4.93
2022-12-18T23:41:36.987Z,5.03
2022-12-18T23:47:01.041Z,5.03
2022-12-18T23:52:35.227Z,5.28
2022-12-18T23:58:02.959Z,4.80
